Terminal Aerodrome Forecast
Issued by NWS

Home | Current Version | Previous Version | Text Only | Print | Product List | Glossary On
Versions: 1 2 3 4 5 6 7 8 9 10 11 12 13 14 15 16 17 18 19 20 21 22 23 24 25
903
FTUS43 KIND 202331
TAFBMG
TAF
KBMG 202331Z 2100/2124 13006KT P6SM SCT250
     FM211200 18005KT 5SM BR VCSH BKN090
     FM211500 19007KT 6SM BR VCSH BKN040
     FM211800 21007KT P6SM OVC025
     FM212100 21006KT P6SM OVC015
      AMD LTD TO CLD VIS AND WIND 2102/2114=

USA.gov is the U.S. government's official web portal to all federal, state and local government web resources and services.